Date,TemperatureHighF,TemperatureAvgF,TemperatureLowF,DewpointHighF,DewpointAvgF,DewpointLowF,HumidityHigh,HumidityAvg,HumidityLow,PressureMaxIn,PressureMinIn,WindSpeedMaxMPH,WindSpeedAvgMPH,GustSpeedMaxMPH,PrecipitationSumIn
2013-3-1,38.2,35.2,31.0,25.0,22.1,15.0,65,59,49,30.32,30.19,12,5,0,0.00
2013-3-2,46.7,35.9,27.9,19.0,16.8,14.0,63,47,28,30.39,30.19,12,3,0,0.00
2013-3-3,62.3,47.1,32.2,31.0,23.3,-99.9,61,42,27,30.18,29.66,21,-3,0,0.00
2013-3-4,73.2,57.7,45.4,42.0,36.8,31.0,67,48,27,29.91,29.51,13,6,0,0.00
2013-3-5,49.4,42.2,35.9,35.0,21.7,13.0,82,47,27,30.36,29.92,20,7,0,0.07
2013-3-6,50.5,38.8,27.8,24.0,17.4,-99.9,66,45,25,30.44,30.20,10,-9,0,0.00
2013-3-7,64.7,51.1,37.2,29.0,25.8,24.0,63,41,22,30.21,30.04,18,7,0,0.00
2013-3-8,59.0,53.1,47.0,40.0,34.6,28.0,67,50,40,30.15,29.93,18,8,0,0.00
2013-3-9,62.6,58.3,53.3,56.0,47.5,35.0,90,69,41,29.93,29.61,29,9,0,0.26
2013-3-10,56.0,42.6,32.7,52.0,34.4,-99.9,90,75,65,30.03,29.59,19,-5,0,0.02
2013-3-11,52.5,39.9,29.7,23.0,18.3,11.0,70,46,19,30.04,29.95,15,4,0,0.00
2013-3-12,60.2,48.5,38.2,36.0,24.1,15.0,62,40,24,30.31,30.01,12,3,0,0.00
2013-3-13,56.7,45.3,34.6,24.0,20.5,17.0,60,39,23,30.48,30.32,8,2,0,0.00
2013-3-14,77.9,59.6,41.9,41.0,32.1,23.0,54,37,23,30.31,30.03,18,6,0,0.00
2013-3-15,83.0,67.7,54.7,48.0,41.5,-99.9,66,42,22,30.05,29.70,19,-4,0,0.00
2013-3-16,76.7,63.6,49.2,48.0,43.4,38.0,65,49,35,29.79,29.66,17,6,0,0.00
2013-3-17,48.9,44.1,41.3,42.0,38.5,36.0,89,81,65,29.81,29.68,18,7,0,0.00
2013-3-18,61.5,49.3,40.2,41.0,33.0,22.0,89,60,25,30.02,29.67,13,4,0,0.00
2013-3-19,59.8,49.2,39.1,28.0,25.0,20.0,61,41,24,30.22,29.99,17,4,0,0.00
2013-3-20,52.5,43.9,36.5,32.0,23.1,14.0,77,48,24,30.39,30.06,15,3,0,0.00
2013-3-21,42.5,38.7,37.5,33.0,23.0,-99.9,81,58,41,30.05,29.73,14,-17,0,0.04
2013-3-22,46.0,41.0,36.3,38.0,35.5,33.0,90,81,69,29.90,29.77,9,4,0,0.46
2013-3-23,43.1,40.6,38.8,41.0,36.2,-99.9,92,87,79,29.89,29.71,11,-7,0,0.00
2013-3-24,40.2,35.4,32.2,36.0,25.1,17.0,91,68,41,30.18,29.76,22,7,0,0.01
2013-3-25,39.3,33.9,28.8,21.0,17.5,13.0,67,52,37,30.39,30.17,15,5,0,0.00
2013-3-26,51.6,38.2,26.4,22.0,18.4,14.0,71,48,25,30.46,30.27,10,2,0,0.00
2013-3-27,66.1,50.1,34.3,30.0,25.1,21.0,63,41,24,30.27,30.06,20,7,0,0.00
2013-3-28,72.3,59.8,47.3,49.0,40.4,27.0,62,49,36,30.15,30.01,16,7,0,0.00
2013-3-29,71.1,61.8,54.7,57.0,52.8,49.0,89,73,57,30.09,30.01,11,2,0,0.21
2013-3-30,75.3,64.0,55.4,59.0,54.9,51.0,89,73,55,30.03,29.77,15,5,0,0.19
2013-3-31,71.5,62.2,53.5,56.0,45.5,38.0,89,58,31,29.96,29.81,15,4,0,0.00